sensor_id;sensor_type;location;lat;lon;timestamp;P1;durP1;ratioP1;P2;durP2;ratioP2
8100;SDS011;4093;53.470;9.832;2024-01-10T00:02:18;15.30;;;9.67;;
8100;SDS011;4093;53.470;9.832;2024-01-10T00:04:47;15.33;;;9.00;;
8100;SDS011;4093;53.470;9.832;2024-01-10T00:07:15;15.20;;;8.60;;
8100;SDS011;4093;53.470;9.832;2024-01-10T00:09:43;15.97;;;8.40;;
8100;SDS011;4093;53.470;9.832;2024-01-10T00:12:12;12.87;;;8.03;;
8100;SDS011;4093;53.470;9.832;2024-01-10T00:14:39;13.13;;;8.33;;
8100;SDS011;4093;53.470;9.832;2024-01-10T00:17:07;12.93;;;7.50;;
8100;SDS011;4093;53.470;9.832;2024-01-10T00:19:35;11.23;;;7.40;;
8100;SDS011;4093;53.470;9.832;2024-01-10T00:22:04;12.53;;;8.40;;
8100;SDS011;4093;53.470;9.832;2024-01-10T00:24:32;10.63;;;7.90;;
8100;SDS011;4093;53.470;9.832;2024-01-10T00:27:00;13.27;;;8.33;;
8100;SDS011;4093;53.470;9.832;2024-01-10T00:29:27;11.83;;;7.93;;
8100;SDS011;4093;53.470;9.832;2024-01-10T00:31:55;13.13;;;8.27;;
8100;SDS011;4093;53.470;9.832;2024-01-10T00:34:25;11.43;;;8.27;;
8100;SDS011;4093;53.470;9.832;2024-01-10T00:36:53;11.80;;;8.37;;
8100;SDS011;4093;53.470;9.832;2024-01-10T00:39:23;17.07;;;9.07;;
8100;SDS011;4093;53.470;9.832;2024-01-10T00:41:51;14.20;;;8.67;;
8100;SDS011;4093;53.470;9.832;2024-01-10T00:44:18;14.73;;;8.67;;
8100;SDS011;4093;53.470;9.832;2024-01-10T00:46:45;13.67;;;8.47;;
8100;SDS011;4093;53.470;9.832;2024-01-10T00:49:13;11.40;;;7.93;;
8100;SDS011;4093;53.470;9.832;2024-01-10T00:51:41;14.53;;;8.23;;
8100;SDS011;4093;53.470;9.832;2024-01-10T00:54:08;15.40;;;8.67;;
8100;SDS011;4093;53.470;9.832;2024-01-10T00:56:37;14.33;;;7.77;;
8100;SDS011;4093;53.470;9.832;2024-01-10T00:59:05;12.67;;;7.73;;
8100;SDS011;4093;53.470;9.832;2024-01-10T01:01:33;14.53;;;8.10;;
8100;SDS011;4093;53.470;9.832;2024-01-10T01:04:00;13.47;;;8.10;;
8100;SDS011;4093;53.470;9.832;2024-01-10T01:06:28;11.83;;;8.23;;
8100;SDS011;4093;53.470;9.832;2024-01-10T01:08:56;12.07;;;7.87;;
8100;SDS011;4093;53.470;9.832;2024-01-10T01:11:25;13.87;;;8.50;;
8100;SDS011;4093;53.470;9.832;2024-01-10T01:13:54;13.40;;;7.93;;
8100;SDS011;4093;53.470;9.832;2024-01-10T01:16:22;14.40;;;8.03;;
8100;SDS011;4093;53.470;9.832;2024-01-10T01:18:49;11.93;;;7.97;;
8100;SDS011;4093;53.470;9.832;2024-01-10T01:21:17;11.83;;;7.80;;
8100;SDS011;4093;53.470;9.832;2024-01-10T01:23:45;15.23;;;8.37;;
8100;SDS011;4093;53.470;9.832;2024-01-10T01:26:13;13.37;;;8.23;;
8100;SDS011;4093;53.470;9.832;2024-01-10T01:28:41;14.53;;;8.97;;
8100;SDS011;4093;53.470;9.832;2024-01-10T01:31:10;13.30;;;8.20;;
8100;SDS011;4093;53.470;9.832;2024-01-10T01:33:37;15.17;;;9.17;;
8100;SDS011;4093;53.470;9.832;2024-01-10T01:36:06;11.50;;;8.37;;
8100;SDS011;4093;53.470;9.832;2024-01-10T01:38:35;13.07;;;8.60;;
8100;SDS011;4093;53.470;9.832;2024-01-10T01:41:02;13.30;;;8.43;;
8100;SDS011;4093;53.470;9.832;2024-01-10T01:43:32;13.43;;;8.43;;
8100;SDS011;4093;53.470;9.832;2024-01-10T01:46:01;10.93;;;8.53;;
8100;SDS011;4093;53.470;9.832;2024-01-10T01:48:31;14.40;;;8.23;;
8100;SDS011;4093;53.470;9.832;2024-01-10T01:51:00;12.67;;;8.17;;
8100;SDS011;4093;53.470;9.832;2024-01-10T01:53:32;11.70;;;7.70;;
8100;SDS011;4093;53.470;9.832;2024-01-10T01:56:02;13.27;;;8.80;;
8100;SDS011;4093;53.470;9.832;2024-01-10T01:58:33;13.33;;;8.20;;
8100;SDS011;4093;53.470;9.832;2024-01-10T02:01:02;15.37;;;8.30;;
8100;SDS011;4093;53.470;9.832;2024-01-10T02:03:33;13.93;;;8.27;;
8100;SDS011;4093;53.470;9.832;2024-01-10T02:06:01;12.60;;;7.70;;
8100;SDS011;4093;53.470;9.832;2024-01-10T02:08:31;10.47;;;7.70;;
8100;SDS011;4093;53.470;9.832;2024-01-10T02:10:59;13.03;;;8.97;;
8100;SDS011;4093;53.470;9.832;2024-01-10T02:13:29;12.77;;;7.87;;
8100;SDS011;4093;53.470;9.832;2024-01-10T02:15:58;13.63;;;8.20;;
8100;SDS011;4093;53.470;9.832;2024-01-10T02:18:26;12.73;;;8.63;;
8100;SDS011;4093;53.470;9.832;2024-01-10T02:20:56;14.93;;;9.23;;
8100;SDS011;4093;53.470;9.832;2024-01-10T02:23:24;14.03;;;9.10;;
8100;SDS011;4093;53.470;9.832;2024-01-10T02:25:53;13.73;;;8.47;;
8100;SDS011;4093;53.470;9.832;2024-01-10T02:28:21;16.17;;;8.33;;
8100;SDS011;4093;53.470;9.832;2024-01-10T02:30:49;13.10;;;8.43;;
8100;SDS011;4093;53.470;9.832;2024-01-10T02:33:18;13.60;;;8.00;;
8100;SDS011;4093;53.470;9.832;2024-01-10T02:35:46;11.53;;;7.67;;
8100;SDS011;4093;53.470;9.832;2024-01-10T02:38:13;12.00;;;8.23;;
8100;SDS011;4093;53.470;9.832;2024-01-10T02:40:41;13.43;;;8.67;;
8100;SDS011;4093;53.470;9.832;2024-01-10T02:43:10;12.37;;;8.73;;
8100;SDS011;4093;53.470;9.832;2024-01-10T02:45:38;13.80;;;8.17;;
8100;SDS011;4093;53.470;9.832;2024-01-10T02:48:06;11.73;;;8.03;;
8100;SDS011;4093;53.470;9.832;2024-01-10T02:50:34;15.90;;;8.60;;
8100;SDS011;4093;53.470;9.832;2024-01-10T02:53:03;11.87;;;8.83;;
8100;SDS011;4093;53.470;9.832;2024-01-10T02:55:31;12.27;;;8.33;;
8100;SDS011;4093;53.470;9.832;2024-01-10T02:57:59;12.17;;;7.93;;
8100;SDS011;4093;53.470;9.832;2024-01-10T03:00:28;12.43;;;8.27;;
8100;SDS011;4093;53.470;9.832;2024-01-10T03:02:55;14.57;;;8.73;;
8100;SDS011;4093;53.470;9.832;2024-01-10T03:05:23;15.60;;;9.87;;
8100;SDS011;4093;53.470;9.832;2024-01-10T03:07:51;22.77;;;12.77;;
8100;SDS011;4093;53.470;9.832;2024-01-10T03:10:19;20.00;;;12.17;;
8100;SDS011;4093;53.470;9.832;2024-01-10T03:12:46;26.00;;;13.20;;
8100;SDS011;4093;53.470;9.832;2024-01-10T03:15:14;25.83;;;13.67;;
8100;SDS011;4093;53.470;9.832;2024-01-10T03:17:43;24.37;;;14.77;;
8100;SDS011;4093;53.470;9.832;2024-01-10T03:20:11;28.47;;;15.27;;
8100;SDS011;4093;53.470;9.832;2024-01-10T03:22:39;28.17;;;16.30;;
8100;SDS011;4093;53.470;9.832;2024-01-10T03:25:07;26.10;;;15.43;;
8100;SDS011;4093;53.470;9.832;2024-01-10T03:27:35;32.87;;;17.07;;
8100;SDS011;4093;53.470;9.832;2024-01-10T03:30:03;35.73;;;18.63;;
8100;SDS011;4093;53.470;9.832;2024-01-10T03:32:32;37.43;;;18.83;;
8100;SDS011;4093;53.470;9.832;2024-01-10T03:35:01;34.63;;;18.60;;
8100;SDS011;4093;53.470;9.832;2024-01-10T03:37:29;39.27;;;18.50;;
8100;SDS011;4093;53.470;9.832;2024-01-10T03:39:57;40.93;;;19.13;;
8100;SDS011;4093;53.470;9.832;2024-01-10T03:42:25;37.13;;;19.43;;
8100;SDS011;4093;53.470;9.832;2024-01-10T03:44:53;43.13;;;20.80;;
8100;SDS011;4093;53.470;9.832;2024-01-10T03:47:21;42.00;;;19.53;;
8100;SDS011;4093;53.470;9.832;2024-01-10T03:49:48;47.97;;;20.50;;
8100;SDS011;4093;53.470;9.832;2024-01-10T03:52:18;45.37;;;21.60;;
8100;SDS011;4093;53.470;9.832;2024-01-10T03:54:45;46.00;;;19.80;;
8100;SDS011;4093;53.470;9.832;2024-01-10T03:57:13;43.57;;;20.43;;
8100;SDS011;4093;53.470;9.832;2024-01-10T03:59:41;39.47;;;20.63;;
8100;SDS011;4093;53.470;9.832;2024-01-10T04:02:08;45.47;;;21.60;;
8100;SDS011;4093;53.470;9.832;2024-01-10T04:04:36;40.57;;;20.57;;
8100;SDS011;4093;53.470;9.832;2024-01-10T04:07:05;35.50;;;18.67;;
8100;SDS011;4093;53.470;9.832;2024-01-10T04:09:36;37.53;;;18.57;;
8100;SDS011;4093;53.470;9.832;2024-01-10T04:12:04;33.80;;;18.00;;
8100;SDS011;4093;53.470;9.832;2024-01-10T04:14:32;39.83;;;17.50;;
8100;SDS011;4093;53.470;9.832;2024-01-10T04:17:00;36.20;;;19.10;;
8100;SDS011;4093;53.470;9.832;2024-01-10T04:19:29;41.97;;;20.57;;
8100;SDS011;4093;53.470;9.832;2024-01-10T04:21:57;39.33;;;20.17;;
8100;SDS011;4093;53.470;9.832;2024-01-10T04:24:24;45.27;;;21.57;;
8100;SDS011;4093;53.470;9.832;2024-01-10T04:26:53;49.60;;;21.57;;
8100;SDS011;4093;53.470;9.832;2024-01-10T04:29:21;45.63;;;22.43;;
8100;SDS011;4093;53.470;9.832;2024-01-10T04:31:49;52.47;;;24.63;;
8100;SDS011;4093;53.470;9.832;2024-01-10T04:34:17;46.73;;;22.53;;
8100;SDS011;4093;53.470;9.832;2024-01-10T04:36:45;46.00;;;22.23;;
8100;SDS011;4093;53.470;9.832;2024-01-10T04:39:13;42.93;;;22.10;;
8100;SDS011;4093;53.470;9.832;2024-01-10T04:41:40;52.23;;;25.00;;
8100;SDS011;4093;53.470;9.832;2024-01-10T04:44:10;60.67;;;24.87;;
8100;SDS011;4093;53.470;9.832;2024-01-10T04:46:37;53.57;;;24.97;;
8100;SDS011;4093;53.470;9.832;2024-01-10T04:49:07;55.17;;;23.57;;
8100;SDS011;4093;53.470;9.832;2024-01-10T04:51:35;46.30;;;23.37;;
8100;SDS011;4093;53.470;9.832;2024-01-10T04:54:03;50.33;;;23.60;;
8100;SDS011;4093;53.470;9.832;2024-01-10T04:56:31;50.93;;;22.63;;
8100;SDS011;4093;53.470;9.832;2024-01-10T04:58:58;48.47;;;23.33;;
8100;SDS011;4093;53.470;9.832;2024-01-10T05:01:27;52.40;;;23.73;;
8100;SDS011;4093;53.470;9.832;2024-01-10T05:03:55;51.43;;;23.87;;
8100;SDS011;4093;53.470;9.832;2024-01-10T05:06:23;45.93;;;21.83;;
8100;SDS011;4093;53.470;9.832;2024-01-10T05:08:51;56.60;;;23.67;;
8100;SDS011;4093;53.470;9.832;2024-01-10T05:11:19;46.93;;;23.37;;
8100;SDS011;4093;53.470;9.832;2024-01-10T05:13:47;46.00;;;22.67;;
8100;SDS011;4093;53.470;9.832;2024-01-10T05:16:15;55.80;;;25.23;;
8100;SDS011;4093;53.470;9.832;2024-01-10T05:18:44;53.43;;;24.17;;
8100;SDS011;4093;53.470;9.832;2024-01-10T05:21:12;52.40;;;26.63;;
8100;SDS011;4093;53.470;9.832;2024-01-10T05:23:40;48.47;;;23.23;;
8100;SDS011;4093;53.470;9.832;2024-01-10T05:26:08;42.20;;;20.93;;
8100;SDS011;4093;53.470;9.832;2024-01-10T05:28:35;46.23;;;21.47;;
8100;SDS011;4093;53.470;9.832;2024-01-10T05:31:04;41.93;;;21.43;;
8100;SDS011;4093;53.470;9.832;2024-01-10T05:33:32;40.03;;;19.63;;
8100;SDS011;4093;53.470;9.832;2024-01-10T05:36:01;42.73;;;20.83;;
8100;SDS011;4093;53.470;9.832;2024-01-10T05:38:29;47.30;;;20.93;;
8100;SDS011;4093;53.470;9.832;2024-01-10T05:40:57;40.50;;;20.87;;
8100;SDS011;4093;53.470;9.832;2024-01-10T05:43:25;43.93;;;19.63;;
8100;SDS011;4093;53.470;9.832;2024-01-10T05:45:53;37.03;;;19.27;;
8100;SDS011;4093;53.470;9.832;2024-01-10T05:48:21;38.23;;;20.43;;
8100;SDS011;4093;53.470;9.832;2024-01-10T05:50:48;38.43;;;19.57;;
8100;SDS011;4093;53.470;9.832;2024-01-10T05:53:18;40.57;;;21.57;;
8100;SDS011;4093;53.470;9.832;2024-01-10T05:55:46;35.57;;;19.00;;
8100;SDS011;4093;53.470;9.832;2024-01-10T05:58:14;35.73;;;18.43;;
8100;SDS011;4093;53.470;9.832;2024-01-10T06:00:42;34.33;;;18.03;;
8100;SDS011;4093;53.470;9.832;2024-01-10T06:03:09;36.40;;;17.47;;
8100;SDS011;4093;53.470;9.832;2024-01-10T06:05:37;35.67;;;16.53;;
8100;SDS011;4093;53.470;9.832;2024-01-10T06:08:05;30.63;;;16.00;;
8100;SDS011;4093;53.470;9.832;2024-01-10T06:10:35;32.33;;;16.50;;
8100;SDS011;4093;53.470;9.832;2024-01-10T06:13:03;30.07;;;16.27;;
8100;SDS011;4093;53.470;9.832;2024-01-10T06:15:31;31.87;;;16.30;;
8100;SDS011;4093;53.470;9.832;2024-01-10T06:17:59;27.47;;;14.23;;
8100;SDS011;4093;53.470;9.832;2024-01-10T06:20:28;32.13;;;15.93;;
8100;SDS011;4093;53.470;9.832;2024-01-10T06:22:58;31.17;;;14.27;;
8100;SDS011;4093;53.470;9.832;2024-01-10T06:25:26;39.43;;;17.70;;
8100;SDS011;4093;53.470;9.832;2024-01-10T06:27:55;34.50;;;16.80;;
8100;SDS011;4093;53.470;9.832;2024-01-10T06:30:22;34.70;;;16.90;;
8100;SDS011;4093;53.470;9.832;2024-01-10T06:32:50;40.63;;;16.80;;
8100;SDS011;4093;53.470;9.832;2024-01-10T06:35:18;37.80;;;16.97;;
8100;SDS011;4093;53.470;9.832;2024-01-10T06:37:46;34.33;;;17.27;;
8100;SDS011;4093;53.470;9.832;2024-01-10T06:40:14;32.40;;;16.47;;
8100;SDS011;4093;53.470;9.832;2024-01-10T06:42:42;36.03;;;16.47;;
8100;SDS011;4093;53.470;9.832;2024-01-10T06:45:11;33.47;;;16.17;;
8100;SDS011;4093;53.470;9.832;2024-01-10T06:47:39;34.53;;;17.87;;
8100;SDS011;4093;53.470;9.832;2024-01-10T06:50:08;38.90;;;17.83;;
8100;SDS011;4093;53.470;9.832;2024-01-10T06:52:36;37.50;;;17.30;;
8100;SDS011;4093;53.470;9.832;2024-01-10T06:55:05;30.07;;;15.80;;
8100;SDS011;4093;53.470;9.832;2024-01-10T06:57:34;42.13;;;18.43;;
8100;SDS011;4093;53.470;9.832;2024-01-10T07:00:02;40.00;;;17.37;;
8100;SDS011;4093;53.470;9.832;2024-01-10T07:02:34;40.40;;;18.30;;
8100;SDS011;4093;53.470;9.832;2024-01-10T07:05:03;40.33;;;19.07;;
8100;SDS011;4093;53.470;9.832;2024-01-10T07:07:34;46.53;;;19.33;;
8100;SDS011;4093;53.470;9.832;2024-01-10T07:10:02;39.33;;;19.60;;
8100;SDS011;4093;53.470;9.832;2024-01-10T07:12:31;39.60;;;17.77;;
8100;SDS011;4093;53.470;9.832;2024-01-10T07:14:58;34.93;;;18.53;;
8100;SDS011;4093;53.470;9.832;2024-01-10T07:17:26;33.97;;;18.27;;
8100;SDS011;4093;53.470;9.832;2024-01-10T07:19:55;37.00;;;18.17;;
8100;SDS011;4093;53.470;9.832;2024-01-10T07:22:23;41.07;;;19.43;;
8100;SDS011;4093;53.470;9.832;2024-01-10T07:24:51;40.13;;;18.70;;
8100;SDS011;4093;53.470;9.832;2024-01-10T07:27:19;32.57;;;17.13;;
8100;SDS011;4093;53.470;9.832;2024-01-10T07:29:46;37.50;;;18.80;;
8100;SDS011;4093;53.470;9.832;2024-01-10T07:32:14;38.07;;;18.47;;
8100;SDS011;4093;53.470;9.832;2024-01-10T07:34:42;36.63;;;20.17;;
8100;SDS011;4093;53.470;9.832;2024-01-10T07:37:12;39.80;;;19.47;;
8100;SDS011;4093;53.470;9.832;2024-01-10T07:39:42;42.00;;;20.53;;
8100;SDS011;4093;53.470;9.832;2024-01-10T07:42:10;40.97;;;19.03;;
8100;SDS011;4093;53.470;9.832;2024-01-10T07:44:38;38.07;;;19.93;;
8100;SDS011;4093;53.470;9.832;2024-01-10T07:47:06;42.77;;;20.93;;
8100;SDS011;4093;53.470;9.832;2024-01-10T07:49:34;45.47;;;20.37;;
8100;SDS011;4093;53.470;9.832;2024-01-10T07:52:03;37.93;;;19.50;;
8100;SDS011;4093;53.470;9.832;2024-01-10T07:54:33;36.90;;;19.63;;
8100;SDS011;4093;53.470;9.832;2024-01-10T07:57:00;40.70;;;19.07;;
8100;SDS011;4093;53.470;9.832;2024-01-10T07:59:28;39.47;;;20.00;;
8100;SDS011;4093;53.470;9.832;2024-01-10T08:01:56;43.23;;;21.17;;
8100;SDS011;4093;53.470;9.832;2024-01-10T08:04:25;48.33;;;21.67;;
8100;SDS011;4093;53.470;9.832;2024-01-10T08:06:53;40.50;;;21.90;;
8100;SDS011;4093;53.470;9.832;2024-01-10T08:09:21;42.27;;;20.23;;
8100;SDS011;4093;53.470;9.832;2024-01-10T08:11:51;37.23;;;18.73;;
8100;SDS011;4093;53.470;9.832;2024-01-10T08:14:18;39.20;;;19.07;;
8100;SDS011;4093;53.470;9.832;2024-01-10T08:16:46;35.00;;;18.50;;
8100;SDS011;4093;53.470;9.832;2024-01-10T08:19:14;31.30;;;16.70;;
8100;SDS011;4093;53.470;9.832;2024-01-10T08:21:42;33.40;;;18.10;;
8100;SDS011;4093;53.470;9.832;2024-01-10T08:24:10;35.30;;;17.77;;
8100;SDS011;4093;53.470;9.832;2024-01-10T08:26:37;42.07;;;19.87;;
8100;SDS011;4093;53.470;9.832;2024-01-10T08:29:07;37.30;;;18.67;;
8100;SDS011;4093;53.470;9.832;2024-01-10T08:31:34;35.47;;;17.73;;
8100;SDS011;4093;53.470;9.832;2024-01-10T08:34:02;34.77;;;17.17;;
8100;SDS011;4093;53.470;9.832;2024-01-10T08:36:30;35.97;;;19.03;;
8100;SDS011;4093;53.470;9.832;2024-01-10T08:38:57;36.93;;;19.00;;
8100;SDS011;4093;53.470;9.832;2024-01-10T08:41:25;40.13;;;20.00;;
8100;SDS011;4093;53.470;9.832;2024-01-10T08:43:52;36.90;;;19.23;;
8100;SDS011;4093;53.470;9.832;2024-01-10T08:46:21;40.03;;;18.80;;
8100;SDS011;4093;53.470;9.832;2024-01-10T08:48:50;40.50;;;19.37;;
8100;SDS011;4093;53.470;9.832;2024-01-10T08:51:18;39.90;;;18.57;;
8100;SDS011;4093;53.470;9.832;2024-01-10T08:53:46;38.13;;;19.67;;
8100;SDS011;4093;53.470;9.832;2024-01-10T08:56:14;35.03;;;18.53;;
8100;SDS011;4093;53.470;9.832;2024-01-10T08:58:42;36.07;;;19.70;;
8100;SDS011;4093;53.470;9.832;2024-01-10T09:01:10;26.37;;;14.83;;
8100;SDS011;4093;53.470;9.832;2024-01-10T09:03:39;30.60;;;16.70;;
8100;SDS011;4093;53.470;9.832;2024-01-10T09:06:07;32.97;;;18.17;;
8100;SDS011;4093;53.470;9.832;2024-01-10T09:08:37;32.07;;;17.67;;
8100;SDS011;4093;53.470;9.832;2024-01-10T09:11:06;26.53;;;14.27;;
8100;SDS011;4093;53.470;9.832;2024-01-10T09:13:34;29.73;;;16.30;;
8100;SDS011;4093;53.470;9.832;2024-01-10T09:16:04;34.30;;;19.03;;
8100;SDS011;4093;53.470;9.832;2024-01-10T09:18:32;30.27;;;17.23;;
8100;SDS011;4093;53.470;9.832;2024-01-10T09:21:01;31.67;;;18.20;;
8100;SDS011;4093;53.470;9.832;2024-01-10T09:23:31;37.03;;;19.47;;
8100;SDS011;4093;53.470;9.832;2024-01-10T09:25:58;34.83;;;18.47;;
8100;SDS011;4093;53.470;9.832;2024-01-10T09:28:26;35.03;;;17.73;;
8100;SDS011;4093;53.470;9.832;2024-01-10T09:30:54;35.30;;;18.80;;
8100;SDS011;4093;53.470;9.832;2024-01-10T09:33:22;37.07;;;19.47;;
8100;SDS011;4093;53.470;9.832;2024-01-10T09:35:50;37.20;;;19.97;;
8100;SDS011;4093;53.470;9.832;2024-01-10T09:38:19;36.13;;;19.57;;
8100;SDS011;4093;53.470;9.832;2024-01-10T09:40:47;34.43;;;18.20;;
8100;SDS011;4093;53.470;9.832;2024-01-10T09:43:14;34.70;;;18.77;;
8100;SDS011;4093;53.470;9.832;2024-01-10T09:45:43;34.63;;;18.20;;
8100;SDS011;4093;53.470;9.832;2024-01-10T09:48:13;31.37;;;17.50;;
8100;SDS011;4093;53.470;9.832;2024-01-10T09:50:42;33.73;;;18.23;;
8100;SDS011;4093;53.470;9.832;2024-01-10T09:53:11;34.40;;;17.67;;
8100;SDS011;4093;53.470;9.832;2024-01-10T09:55:48;34.23;;;18.37;;
8100;SDS011;4093;53.470;9.832;2024-01-10T09:58:15;36.87;;;20.93;;
8100;SDS011;4093;53.470;9.832;2024-01-10T10:00:44;31.10;;;18.97;;
8100;SDS011;4093;53.470;9.832;2024-01-10T10:03:11;35.27;;;18.87;;
8100;SDS011;4093;53.470;9.832;2024-01-10T10:05:43;34.77;;;18.37;;
8100;SDS011;4093;53.470;9.832;2024-01-10T10:08:11;32.90;;;18.93;;
8100;SDS011;4093;53.470;9.832;2024-01-10T10:10:41;37.17;;;19.80;;
8100;SDS011;4093;53.470;9.832;2024-01-10T10:13:23;33.97;;;19.57;;
8100;SDS011;4093;53.470;9.832;2024-01-10T10:15:58;34.27;;;19.43;;
8100;SDS011;4093;53.470;9.832;2024-01-10T10:18:27;34.43;;;19.33;;
8100;SDS011;4093;53.470;9.832;2024-01-10T10:21:07;29.80;;;15.90;;
8100;SDS011;4093;53.470;9.832;2024-01-10T10:23:38;26.47;;;14.93;;
8100;SDS011;4093;53.470;9.832;2024-01-10T10:26:10;26.70;;;16.57;;
8100;SDS011;4093;53.470;9.832;2024-01-10T10:28:41;30.47;;;17.03;;
8100;SDS011;4093;53.470;9.832;2024-01-10T10:31:09;33.67;;;18.27;;
8100;SDS011;4093;53.470;9.832;2024-01-10T10:33:38;32.33;;;17.77;;
8100;SDS011;4093;53.470;9.832;2024-01-10T10:36:06;33.40;;;19.97;;
8100;SDS011;4093;53.470;9.832;2024-01-10T10:38:35;29.47;;;15.87;;
8100;SDS011;4093;53.470;9.832;2024-01-10T10:41:04;21.17;;;13.77;;
8100;SDS011;4093;53.470;9.832;2024-01-10T10:43:37;23.67;;;13.93;;
8100;SDS011;4093;53.470;9.832;2024-01-10T10:46:08;24.70;;;15.13;;
8100;SDS011;4093;53.470;9.832;2024-01-10T10:48:38;25.87;;;14.87;;
8100;SDS011;4093;53.470;9.832;2024-01-10T10:51:08;21.83;;;11.87;;
8100;SDS011;4093;53.470;9.832;2024-01-10T10:53:37;25.93;;;15.13;;
8100;SDS011;4093;53.470;9.832;2024-01-10T10:56:06;26.80;;;16.23;;
8100;SDS011;4093;53.470;9.832;2024-01-10T10:58:35;23.60;;;13.90;;
8100;SDS011;4093;53.470;9.832;2024-01-10T11:01:06;28.43;;;16.60;;
8100;SDS011;4093;53.470;9.832;2024-01-10T11:03:39;29.90;;;15.97;;
8100;SDS011;4093;53.470;9.832;2024-01-10T11:06:09;25.03;;;13.23;;
8100;SDS011;4093;53.470;9.832;2024-01-10T11:08:37;28.90;;;16.73;;
8100;SDS011;4093;53.470;9.832;2024-01-10T11:11:13;27.47;;;15.20;;
8100;SDS011;4093;53.470;9.832;2024-01-10T11:13:56;25.80;;;13.60;;
8100;SDS011;4093;53.470;9.832;2024-01-10T11:19:40;26.20;;;13.73;;
8100;SDS011;4093;53.470;9.832;2024-01-10T11:22:25;22.20;;;13.60;;
8100;SDS011;4093;53.470;9.832;2024-01-10T11:25:07;24.03;;;14.20;;
8100;SDS011;4093;53.470;9.832;2024-01-10T11:27:36;21.80;;;13.13;;
8100;SDS011;4093;53.470;9.832;2024-01-10T11:30:05;23.43;;;14.00;;
8100;SDS011;4093;53.470;9.832;2024-01-10T11:32:35;31.27;;;16.10;;
8100;SDS011;4093;53.470;9.832;2024-01-10T11:35:04;20.50;;;12.77;;
8100;SDS011;4093;53.470;9.832;2024-01-10T11:37:38;21.53;;;12.30;;
8100;SDS011;4093;53.470;9.832;2024-01-10T11:40:07;22.97;;;13.70;;
8100;SDS011;4093;53.470;9.832;2024-01-10T11:42:45;25.23;;;14.27;;
8100;SDS011;4093;53.470;9.832;2024-01-10T11:45:16;21.80;;;13.73;;
8100;SDS011;4093;53.470;9.832;2024-01-10T11:48:05;22.90;;;13.87;;
8100;SDS011;4093;53.470;9.832;2024-01-10T11:50:34;23.57;;;14.30;;
8100;SDS011;4093;53.470;9.832;2024-01-10T11:53:02;24.80;;;14.93;;
8100;SDS011;4093;53.470;9.832;2024-01-10T11:55:46;21.40;;;13.63;;
8100;SDS011;4093;53.470;9.832;2024-01-10T11:58:14;24.87;;;14.87;;
8100;SDS011;4093;53.470;9.832;2024-01-10T12:00:44;21.77;;;13.37;;
8100;SDS011;4093;53.470;9.832;2024-01-10T12:03:14;24.90;;;12.97;;
8100;SDS011;4093;53.470;9.832;2024-01-10T12:05:42;22.77;;;14.77;;
8100;SDS011;4093;53.470;9.832;2024-01-10T12:08:10;21.27;;;12.57;;
8100;SDS011;4093;53.470;9.832;2024-01-10T12:10:38;28.27;;;15.13;;
8100;SDS011;4093;53.470;9.832;2024-01-10T12:13:06;24.27;;;13.50;;
8100;SDS011;4093;53.470;9.832;2024-01-10T12:15:34;24.57;;;14.17;;
8100;SDS011;4093;53.470;9.832;2024-01-10T12:18:02;23.93;;;13.53;;
8100;SDS011;4093;53.470;9.832;2024-01-10T12:20:32;23.33;;;15.37;;
8100;SDS011;4093;53.470;9.832;2024-01-10T12:22:59;26.67;;;15.07;;
8100;SDS011;4093;53.470;9.832;2024-01-10T12:25:27;27.50;;;15.40;;
8100;SDS011;4093;53.470;9.832;2024-01-10T12:27:55;25.97;;;14.90;;
8100;SDS011;4093;53.470;9.832;2024-01-10T12:30:28;25.93;;;15.40;;
8100;SDS011;4093;53.470;9.832;2024-01-10T12:32:58;25.57;;;15.17;;
8100;SDS011;4093;53.470;9.832;2024-01-10T12:35:27;28.73;;;16.40;;
8100;SDS011;4093;53.470;9.832;2024-01-10T12:37:57;27.43;;;14.53;;
8100;SDS011;4093;53.470;9.832;2024-01-10T12:40:25;26.90;;;15.07;;
8100;SDS011;4093;53.470;9.832;2024-01-10T12:43:01;25.67;;;15.30;;
8100;SDS011;4093;53.470;9.832;2024-01-10T12:45:29;26.67;;;14.93;;
8100;SDS011;4093;53.470;9.832;2024-01-10T12:47:57;28.03;;;16.03;;
8100;SDS011;4093;53.470;9.832;2024-01-10T12:50:25;25.03;;;14.30;;
8100;SDS011;4093;53.470;9.832;2024-01-10T12:52:53;31.47;;;16.30;;
8100;SDS011;4093;53.470;9.832;2024-01-10T12:55:22;28.50;;;16.53;;
8100;SDS011;4093;53.470;9.832;2024-01-10T12:57:53;26.43;;;14.43;;
8100;SDS011;4093;53.470;9.832;2024-01-10T13:00:21;25.77;;;14.47;;
8100;SDS011;4093;53.470;9.832;2024-01-10T13:02:49;27.00;;;15.10;;
8100;SDS011;4093;53.470;9.832;2024-01-10T13:05:17;28.40;;;14.73;;
8100;SDS011;4093;53.470;9.832;2024-01-10T13:07:44;28.83;;;16.40;;
8100;SDS011;4093;53.470;9.832;2024-01-10T13:10:13;28.70;;;15.47;;
8100;SDS011;4093;53.470;9.832;2024-01-10T13:12:42;30.83;;;15.27;;
8100;SDS011;4093;53.470;9.832;2024-01-10T13:15:11;26.83;;;15.33;;
8100;SDS011;4093;53.470;9.832;2024-01-10T13:17:39;27.70;;;16.67;;
8100;SDS011;4093;53.470;9.832;2024-01-10T13:20:07;29.57;;;14.70;;
8100;SDS011;4093;53.470;9.832;2024-01-10T13:22:36;27.77;;;14.83;;
8100;SDS011;4093;53.470;9.832;2024-01-10T13:25:05;23.03;;;14.17;;
8100;SDS011;4093;53.470;9.832;2024-01-10T13:27:33;24.83;;;12.77;;
8100;SDS011;4093;53.470;9.832;2024-01-10T13:30:03;25.33;;;13.97;;
8100;SDS011;4093;53.470;9.832;2024-01-10T13:32:32;23.33;;;14.50;;
8100;SDS011;4093;53.470;9.832;2024-01-10T13:34:59;26.57;;;13.97;;
8100;SDS011;4093;53.470;9.832;2024-01-10T13:37:27;25.50;;;14.37;;
8100;SDS011;4093;53.470;9.832;2024-01-10T13:39:55;21.30;;;11.77;;
8100;SDS011;4093;53.470;9.832;2024-01-10T13:42:23;27.17;;;15.27;;
8100;SDS011;4093;53.470;9.832;2024-01-10T13:44:51;26.73;;;15.40;;
8100;SDS011;4093;53.470;9.832;2024-01-10T13:47:20;31.27;;;15.60;;
8100;SDS011;4093;53.470;9.832;2024-01-10T13:49:49;27.67;;;15.17;;
8100;SDS011;4093;53.470;9.832;2024-01-10T13:52:17;27.90;;;16.77;;
8100;SDS011;4093;53.470;9.832;2024-01-10T13:54:45;29.83;;;15.80;;
8100;SDS011;4093;53.470;9.832;2024-01-10T13:57:13;32.03;;;17.67;;
8100;SDS011;4093;53.470;9.832;2024-01-10T13:59:40;28.47;;;16.00;;
8100;SDS011;4093;53.470;9.832;2024-01-10T14:02:08;30.17;;;16.30;;
8100;SDS011;4093;53.470;9.832;2024-01-10T14:04:38;27.30;;;15.33;;
8100;SDS011;4093;53.470;9.832;2024-01-10T14:07:06;28.40;;;14.97;;
8100;SDS011;4093;53.470;9.832;2024-01-10T14:09:33;22.27;;;13.70;;
8100;SDS011;4093;53.470;9.832;2024-01-10T14:12:02;22.07;;;13.47;;
8100;SDS011;4093;53.470;9.832;2024-01-10T14:14:29;29.30;;;14.97;;
8100;SDS011;4093;53.470;9.832;2024-01-10T14:16:59;24.13;;;14.10;;
8100;SDS011;4093;53.470;9.832;2024-01-10T14:19:26;28.80;;;15.20;;
8100;SDS011;4093;53.470;9.832;2024-01-10T14:21:55;23.80;;;13.20;;
8100;SDS011;4093;53.470;9.832;2024-01-10T14:24:23;31.67;;;15.87;;
8100;SDS011;4093;53.470;9.832;2024-01-10T14:26:52;27.37;;;13.90;;
8100;SDS011;4093;53.470;9.832;2024-01-10T14:29:20;24.37;;;13.30;;
8100;SDS011;4093;53.470;9.832;2024-01-10T14:31:49;27.20;;;13.50;;
8100;SDS011;4093;53.470;9.832;2024-01-10T14:34:21;22.83;;;13.30;;
8100;SDS011;4093;53.470;9.832;2024-01-10T14:36:49;23.23;;;13.30;;
8100;SDS011;4093;53.470;9.832;2024-01-10T14:39:23;24.53;;;12.80;;
8100;SDS011;4093;53.470;9.832;2024-01-10T14:41:50;26.50;;;14.53;;
8100;SDS011;4093;53.470;9.832;2024-01-10T14:44:18;26.00;;;14.90;;
8100;SDS011;4093;53.470;9.832;2024-01-10T14:46:46;26.70;;;14.87;;
8100;SDS011;4093;53.470;9.832;2024-01-10T14:49:28;24.57;;;13.87;;
8100;SDS011;4093;53.470;9.832;2024-01-10T14:51:57;28.80;;;15.70;;
8100;SDS011;4093;53.470;9.832;2024-01-10T14:54:26;29.90;;;15.23;;
8100;SDS011;4093;53.470;9.832;2024-01-10T14:56:54;30.13;;;16.43;;
8100;SDS011;4093;53.470;9.832;2024-01-10T14:59:21;30.17;;;15.60;;
8100;SDS011;4093;53.470;9.832;2024-01-10T15:02:05;28.30;;;15.73;;
8100;SDS011;4093;53.470;9.832;2024-01-10T15:04:36;32.03;;;17.17;;